createdAt,value
2023-05-23T00:00:57.170Z,1010.77
2023-05-23T00:02:01.928Z,1010.74
2023-05-23T00:03:06.122Z,1010.68
2023-05-23T00:04:10.491Z,1010.68
2023-05-23T00:05:14.825Z,1010.68
2023-05-23T00:06:19.218Z,1010.66
2023-05-23T00:07:23.622Z,1010.65
2023-05-23T00:08:42.002Z,1010.63
2023-05-23T00:09:45.250Z,1010.60
2023-05-23T00:10:49.556Z,1010.57
2023-05-23T00:11:53.867Z,1010.59
2023-05-23T00:12:58.314Z,1010.59
2023-05-23T00:14:02.685Z,1010.55
2023-05-23T00:15:07.079Z,1010.52
2023-05-23T00:16:11.382Z,1010.53
2023-05-23T00:17:15.883Z,1010.51
2023-05-23T00:18:20.195Z,1010.53
2023-05-23T00:19:24.535Z,1010.53
2023-05-23T00:20:29.050Z,1010.51
2023-05-23T00:21:33.328Z,1010.44
2023-05-23T00:22:37.757Z,1010.41
2023-05-23T00:23:56.010Z,1010.41
2023-05-23T00:24:59.290Z,1010.39
2023-05-23T00:26:03.534Z,1010.39
2023-05-23T00:27:07.993Z,1010.38
2023-05-23T00:28:12.354Z,1010.40
2023-05-23T00:29:16.953Z,1010.37
2023-05-23T00:30:21.225Z,1010.36
2023-05-23T00:31:25.607Z,1010.35
2023-05-23T00:32:30.045Z,1010.36
2023-05-23T00:33:34.397Z,1010.37
2023-05-23T00:34:41.673Z,1010.38
2023-05-23T00:35:45.119Z,1010.36
2023-05-23T00:36:49.401Z,1010.32
2023-05-23T00:37:53.748Z,1010.34
2023-05-23T00:38:58.126Z,1010.38
2023-05-23T00:40:02.532Z,1010.42
2023-05-23T00:41:06.934Z,1010.42
2023-05-23T00:42:11.256Z,1010.38
2023-05-23T00:43:15.681Z,1010.38
2023-05-23T00:44:20.185Z,1010.39
2023-05-23T00:45:24.328Z,1010.42
2023-05-23T00:46:28.790Z,1010.39
2023-05-23T00:47:33.304Z,1010.37
2023-05-23T00:48:37.523Z,1010.37
2023-05-23T00:49:41.807Z,1010.34
2023-05-23T00:50:46.189Z,1010.34
2023-05-23T00:51:50.527Z,1010.39
2023-05-23T00:52:54.954Z,1010.38
2023-05-23T00:53:59.304Z,1010.36
2023-05-23T00:55:03.678Z,1010.33
2023-05-23T00:56:07.959Z,1010.33
2023-05-23T00:57:12.359Z,1010.33
2023-05-23T00:58:16.660Z,1010.32
2023-05-23T00:59:21.102Z,1010.29
2023-05-23T01:00:25.405Z,1010.32
2023-05-23T01:01:29.764Z,1010.30
2023-05-23T01:02:34.257Z,1010.30
2023-05-23T01:03:38.784Z,1010.30
2023-05-23T01:04:42.809Z,1010.30
2023-05-23T01:05:47.239Z,1010.31
2023-05-23T01:06:51.615Z,1010.29
2023-05-23T01:07:56.002Z,1010.30
2023-05-23T01:09:00.384Z,1010.28
2023-05-23T01:10:04.708Z,1010.28
2023-05-23T01:11:09.076Z,1010.28
2023-05-23T01:12:13.522Z,1010.28
2023-05-23T01:13:17.903Z,1010.27
2023-05-23T01:14:22.193Z,1010.29
2023-05-23T01:15:26.544Z,1010.28
2023-05-23T01:16:31.116Z,1010.31
2023-05-23T01:17:35.243Z,1010.30
2023-05-23T01:18:39.561Z,1010.26
2023-05-23T01:19:44.066Z,1010.25
2023-05-23T01:20:48.340Z,1010.25
2023-05-23T01:21:52.613Z,1010.25
2023-05-23T01:22:57.112Z,1010.22
2023-05-23T01:24:01.513Z,1010.23
2023-05-23T01:25:05.882Z,1010.24
2023-05-23T01:26:10.182Z,1010.23
2023-05-23T01:27:14.598Z,1010.25
2023-05-23T01:28:18.953Z,1010.26
2023-05-23T01:29:23.262Z,1010.25
2023-05-23T01:30:27.550Z,1010.27
2023-05-23T01:31:31.894Z,1010.26
2023-05-23T01:32:36.292Z,1010.27
2023-05-23T01:33:40.639Z,1010.28
2023-05-23T01:34:45.001Z,1010.26
2023-05-23T01:35:49.493Z,1010.26
2023-05-23T01:36:53.758Z,1010.25
2023-05-23T01:37:58.198Z,1010.27
2023-05-23T01:39:02.541Z,1010.29
2023-05-23T01:40:06.963Z,1010.29
2023-05-23T01:41:11.313Z,1010.30
2023-05-23T01:42:15.673Z,1010.29
2023-05-23T01:43:20.135Z,1010.27
2023-05-23T01:44:24.420Z,1010.26
2023-05-23T01:45:28.803Z,1010.25
2023-05-23T01:46:33.055Z,1010.25
2023-05-23T01:47:37.510Z,1010.26
2023-05-23T01:48:41.894Z,1010.23
2023-05-23T01:49:46.269Z,1010.21
2023-05-23T01:50:50.621Z,1010.17
2023-05-23T01:51:55.137Z,1010.19
2023-05-23T01:52:59.368Z,1010.21
2023-05-23T01:54:03.676Z,1010.22
2023-05-23T01:55:08.002Z,1010.23
2023-05-23T01:56:12.343Z,1010.24
2023-05-23T01:57:16.676Z,1010.20
2023-05-23T01:58:21.106Z,1010.18
2023-05-23T01:59:25.500Z,1010.14
2023-05-23T02:00:29.927Z,1010.13
2023-05-23T02:01:34.253Z,1010.11
2023-05-23T02:02:38.703Z,1010.08
2023-05-23T02:03:42.994Z,1010.07
2023-05-23T02:04:47.336Z,1010.06
2023-05-23T02:05:51.629Z,1010.04
2023-05-23T02:06:55.986Z,1010.05
2023-05-23T02:08:00.505Z,1010.05
2023-05-23T02:09:04.848Z,1010.03
2023-05-23T02:10:09.097Z,1010.03
2023-05-23T02:11:13.520Z,1010.03
2023-05-23T02:12:17.813Z,1010.05
2023-05-23T02:13:22.163Z,1010.03
2023-05-23T02:14:26.477Z,1010.00
2023-05-23T02:15:30.793Z,1010.00
2023-05-23T02:16:41.152Z,1009.99
2023-05-23T02:17:44.215Z,1009.97
2023-05-23T02:18:48.481Z,1009.97
2023-05-23T02:19:52.835Z,1009.97
2023-05-23T02:20:57.174Z,1009.98
2023-05-23T02:22:01.601Z,1009.97
2023-05-23T02:23:06.017Z,1009.97
2023-05-23T02:24:10.198Z,1009.96
2023-05-23T02:25:14.614Z,1009.93
2023-05-23T02:26:18.895Z,1009.92
2023-05-23T02:27:23.346Z,1009.91
2023-05-23T02:28:27.601Z,1009.91
2023-05-23T02:29:31.965Z,1009.90
2023-05-23T02:30:36.374Z,1009.90
2023-05-23T02:31:40.781Z,1009.91
2023-05-23T02:32:45.113Z,1009.90
2023-05-23T02:33:49.428Z,1009.89
2023-05-23T02:34:56.305Z,1009.89
2023-05-23T02:35:58.206Z,1009.91
2023-05-23T02:37:02.503Z,1009.89
2023-05-23T02:38:06.814Z,1009.88
2023-05-23T02:39:11.355Z,1009.87
2023-05-23T02:40:15.628Z,1009.88
2023-05-23T02:41:20.025Z,1009.87
2023-05-23T02:42:24.410Z,1009.88
2023-05-23T02:43:28.701Z,1009.88
2023-05-23T02:44:33.113Z,1009.89
2023-05-23T02:45:37.425Z,1009.92
2023-05-23T02:46:41.918Z,1009.95
2023-05-23T02:47:46.256Z,1009.97
2023-05-23T02:48:50.481Z,1009.98
2023-05-23T02:49:54.848Z,1009.98
2023-05-23T02:50:59.167Z,1009.95
2023-05-23T02:52:17.552Z,1009.94
2023-05-23T02:53:21.072Z,1009.92
2023-05-23T02:54:25.436Z,1009.90
2023-05-23T02:55:29.673Z,1009.90
2023-05-23T02:56:33.991Z,1009.90
2023-05-23T02:57:38.413Z,1009.92
2023-05-23T02:58:42.679Z,1009.93
2023-05-23T02:59:46.974Z,1009.95
2023-05-23T03:00:51.315Z,1009.95
2023-05-23T03:01:55.671Z,1009.92
2023-05-23T03:03:00.184Z,1009.90
2023-05-23T03:04:04.530Z,1009.89
2023-05-23T03:05:08.717Z,1009.90
2023-05-23T03:06:13.064Z,1009.89
2023-05-23T03:07:27.514Z,1009.89
2023-05-23T03:08:21.774Z,1009.89
2023-05-23T03:09:26.218Z,1009.88
2023-05-23T03:10:30.739Z,1009.88
2023-05-23T03:11:34.928Z,1009.88
2023-05-23T03:12:39.308Z,1009.85
2023-05-23T03:13:43.729Z,1009.82
2023-05-23T03:14:48.063Z,1009.82
2023-05-23T03:15:52.593Z,1009.79
2023-05-23T03:16:56.928Z,1009.79
2023-05-23T03:18:01.407Z,1009.79
2023-05-23T03:19:05.733Z,1009.78
2023-05-23T03:20:10.157Z,1009.76
2023-05-23T03:21:14.450Z,1009.73
2023-05-23T03:22:18.886Z,1009.72
2023-05-23T03:23:23.202Z,1009.74
2023-05-23T03:24:27.532Z,1009.72
2023-05-23T03:25:31.870Z,1009.75
2023-05-23T03:26:36.390Z,1009.76
2023-05-23T03:27:40.565Z,1009.75
2023-05-23T03:28:44.957Z,1009.72
2023-05-23T03:29:49.265Z,1009.71
2023-05-23T03:30:53.692Z,1009.69
2023-05-23T03:31:58.106Z,1009.68
2023-05-23T03:33:02.454Z,1009.66
2023-05-23T03:34:06.744Z,1009.68
2023-05-23T03:35:11.101Z,1009.73
2023-05-23T03:36:15.555Z,1009.73
2023-05-23T03:37:19.943Z,1009.73
2023-05-23T03:38:24.336Z,1009.73
2023-05-23T03:39:28.721Z,1009.71
2023-05-23T03:40:33.069Z,1009.69
2023-05-23T03:41:37.335Z,1009.68
2023-05-23T03:42:41.963Z,1009.69
2023-05-23T03:43:46.125Z,1009.70
2023-05-23T03:44:50.578Z,1009.69
2023-05-23T03:45:54.884Z,1009.69
2023-05-23T03:46:59.229Z,1009.68
2023-05-23T03:48:03.643Z,1009.68
2023-05-23T03:49:07.995Z,1009.67
2023-05-23T03:50:12.352Z,1009.66
2023-05-23T03:51:16.757Z,1009.65
2023-05-23T03:52:21.080Z,1009.64
2023-05-23T03:53:25.471Z,1009.64
2023-05-23T03:54:29.809Z,1009.64
2023-05-23T03:55:34.333Z,1009.63
2023-05-23T03:56:38.700Z,1009.64
2023-05-23T03:57:43.030Z,1009.63
2023-05-23T03:58:47.532Z,1009.62
2023-05-23T03:59:51.719Z,1009.59
2023-05-23T04:00:56.197Z,1009.60
2023-05-23T04:02:00.618Z,1009.60
2023-05-23T04:03:05.119Z,1009.58
2023-05-23T04:04:09.275Z,1009.62
2023-05-23T04:05:13.542Z,1009.60
2023-05-23T04:06:18.010Z,1009.59
2023-05-23T04:07:22.380Z,1009.61
2023-05-23T04:08:26.709Z,1009.60
2023-05-23T04:09:34.023Z,1009.59
2023-05-23T04:10:37.478Z,1009.58
2023-05-23T04:11:41.845Z,1009.57
2023-05-23T04:12:46.279Z,1009.59
2023-05-23T04:13:50.586Z,1009.61
2023-05-23T04:14:55.066Z,1009.63
2023-05-23T04:15:59.376Z,1009.64
2023-05-23T04:17:03.695Z,1009.63
2023-05-23T04:18:08.109Z,1009.63
2023-05-23T04:19:12.624Z,1009.62
2023-05-23T04:20:16.938Z,1009.61
2023-05-23T04:21:21.364Z,1009.63
2023-05-23T04:22:25.777Z,1009.65
2023-05-23T04:23:30.078Z,1009.63
2023-05-23T04:24:34.481Z,1009.62
2023-05-23T04:25:38.876Z,1009.62
2023-05-23T04:26:43.244Z,1009.60
2023-05-23T04:27:47.562Z,1009.59
2023-05-23T04:28:51.976Z,1009.58
2023-05-23T04:29:56.248Z,1009.58
2023-05-23T04:31:00.754Z,1009.54
2023-05-23T04:32:05.053Z,1009.50
2023-05-23T04:33:09.346Z,1009.50
2023-05-23T04:34:13.700Z,1009.52
2023-05-23T04:35:18.070Z,1009.53
2023-05-23T04:36:22.511Z,1009.53
2023-05-23T04:37:26.819Z,1009.54
2023-05-23T04:38:31.190Z,1009.55
2023-05-23T04:39:35.554Z,1009.57
2023-05-23T04:40:39.871Z,1009.57
2023-05-23T04:41:44.216Z,1009.56
2023-05-23T04:42:48.570Z,1009.59
2023-05-23T04:43:52.884Z,1009.60
2023-05-23T04:44:57.251Z,1009.58
2023-05-23T04:46:01.716Z,1009.60
2023-05-23T04:47:06.248Z,1009.59
2023-05-23T04:48:10.397Z,1009.60
2023-05-23T04:49:14.723Z,1009.60
2023-05-23T04:50:19.161Z,1009.58
2023-05-23T04:51:23.470Z,1009.59
2023-05-23T04:52:30.762Z,1009.62
2023-05-23T04:53:34.204Z,1009.62
2023-05-23T04:54:38.659Z,1009.60
2023-05-23T04:55:43.276Z,1009.62
2023-05-23T04:56:47.391Z,1009.60
2023-05-23T04:57:51.682Z,1009.63
2023-05-23T04:58:55.987Z,1009.62
2023-05-23T05:00:00.364Z,1009.59
2023-05-23T05:01:04.661Z,1009.57
2023-05-23T05:02:09.149Z,1009.56
2023-05-23T05:03:13.413Z,1009.54
2023-05-23T05:04:17.805Z,1009.54
2023-05-23T05:05:22.094Z,1009.54
2023-05-23T05:06:26.459Z,1009.55
2023-05-23T05:07:30.884Z,1009.52
2023-05-23T05:08:35.186Z,1009.51
2023-05-23T05:09:53.592Z,1009.50
2023-05-23T05:10:56.953Z,1009.47
2023-05-23T05:12:01.325Z,1009.46
2023-05-23T05:13:05.720Z,1009.45
2023-05-23T05:14:10.206Z,1009.44
2023-05-23T05:15:14.481Z,1009.44
2023-05-23T05:16:18.821Z,1009.42
2023-05-23T05:17:23.305Z,1009.43
2023-05-23T05:18:27.577Z,1009.47
2023-05-23T05:19:32.159Z,1009.45
2023-05-23T05:20:36.366Z,1009.48
2023-05-23T05:21:40.660Z,1009.47
2023-05-23T05:22:45.034Z,1009.52
2023-05-23T05:23:49.353Z,1009.55
2023-05-23T05:24:53.696Z,1009.56
2023-05-23T05:25:58.068Z,1009.58
2023-05-23T05:27:02.438Z,1009.60
2023-05-23T05:28:06.890Z,1009.60
2023-05-23T05:29:11.268Z,1009.67
2023-05-23T05:30:15.671Z,1009.67
2023-05-23T05:31:20.068Z,1009.58
2023-05-23T05:32:24.331Z,1009.58
2023-05-23T05:33:28.823Z,1009.61
2023-05-23T05:34:32.980Z,1009.61
2023-05-23T05:35:37.377Z,1009.63
2023-05-23T05:36:41.707Z,1009.61
2023-05-23T05:37:49.047Z,1009.61
2023-05-23T05:38:52.566Z,1009.58
2023-05-23T05:39:56.883Z,1009.55
2023-05-23T05:41:01.306Z,1009.52
2023-05-23T05:42:19.620Z,1009.50
2023-05-23T05:43:23.044Z,1009.48
2023-05-23T05:44:27.441Z,1009.46
2023-05-23T05:45:31.716Z,1009.48
2023-05-23T05:46:36.144Z,1009.49
2023-05-23T05:47:40.480Z,1009.46
2023-05-23T05:48:44.972Z,1009.47
2023-05-23T05:50:03.256Z,1009.46
2023-05-23T05:51:06.550Z,1009.45
2023-05-23T05:52:10.876Z,1009.44
2023-05-23T05:53:15.305Z,1009.45
2023-05-23T05:54:19.653Z,1009.44
2023-05-23T05:55:24.029Z,1009.42
2023-05-23T05:56:28.357Z,1009.39
2023-05-23T05:57:32.755Z,1009.37
2023-05-23T05:58:37.089Z,1009.34
2023-05-23T05:59:41.495Z,1009.34
2023-05-23T06:00:45.826Z,1009.33
2023-05-23T06:01:50.269Z,1009.33
2023-05-23T06:02:54.717Z,1009.36
2023-05-23T06:03:59.159Z,1009.38
2023-05-23T06:05:03.391Z,1009.41
2023-05-23T06:06:07.786Z,1009.39
2023-05-23T06:07:12.236Z,1009.37
2023-05-23T06:08:16.538Z,1009.35
2023-05-23T06:09:20.927Z,1009.34
2023-05-23T06:10:25.371Z,1009.35
2023-05-23T06:11:29.748Z,1009.33
2023-05-23T06:12:34.080Z,1009.36
2023-05-23T06:13:38.428Z,1009.36
2023-05-23T06:14:42.835Z,1009.35
2023-05-23T06:15:47.422Z,1009.36
2023-05-23T06:16:51.695Z,1009.37
2023-05-23T06:17:55.999Z,1009.38
2023-05-23T06:19:00.663Z,1009.36
2023-05-23T06:20:04.835Z,1009.37
2023-05-23T06:21:09.111Z,1009.37
2023-05-23T06:22:13.646Z,1009.38
2023-05-23T06:23:18.001Z,1009.39
2023-05-23T06:24:22.398Z,1009.41
2023-05-23T06:25:26.733Z,1009.42
2023-05-23T06:26:31.092Z,1009.40
2023-05-23T06:27:35.537Z,1009.41
2023-05-23T06:28:39.912Z,1009.41
2023-05-23T06:29:44.328Z,1009.41
2023-05-23T06:30:48.740Z,1009.39
2023-05-23T06:31:53.169Z,1009.41
2023-05-23T06:32:57.527Z,1009.40
2023-05-23T06:34:01.911Z,1009.39
2023-05-23T06:35:06.458Z,1009.42
2023-05-23T06:36:10.710Z,1009.41
2023-05-23T06:37:15.118Z,1009.43
2023-05-23T06:38:19.601Z,1009.42
2023-05-23T06:39:23.855Z,1009.45
2023-05-23T06:40:28.282Z,1009.45
2023-05-23T06:41:32.582Z,1009.46
2023-05-23T06:42:36.919Z,1009.45
2023-05-23T06:43:41.509Z,1009.43
2023-05-23T06:44:45.744Z,1009.44
2023-05-23T06:45:50.289Z,1009.42
2023-05-23T06:46:54.470Z,1009.41
2023-05-23T06:47:58.972Z,1009.40
2023-05-23T06:49:14.184Z,1009.39
2023-05-23T06:50:07.639Z,1009.36
2023-05-23T06:51:12.262Z,1009.36
2023-05-23T06:52:16.401Z,1009.35
2023-05-23T06:53:20.891Z,1009.38
2023-05-23T06:54:25.185Z,1009.37
2023-05-23T06:55:29.631Z,1009.41
2023-05-23T06:56:33.947Z,1009.43
2023-05-23T06:57:38.394Z,1009.42
2023-05-23T06:58:44.142Z,1009.40
2023-05-23T06:59:47.194Z,1009.37
2023-05-23T07:00:51.578Z,1009.37
2023-05-23T07:01:55.894Z,1009.41
2023-05-23T07:03:00.315Z,1009.43
2023-05-23T07:04:04.640Z,1009.43
2023-05-23T07:05:09.047Z,1009.42
2023-05-23T07:06:13.390Z,1009.40
2023-05-23T07:07:17.838Z,1009.37
2023-05-23T07:08:22.133Z,1009.33
2023-05-23T07:09:26.566Z,1009.36
2023-05-23T07:10:30.916Z,1009.36
2023-05-23T07:11:35.344Z,1009.36
2023-05-23T07:12:39.657Z,1009.36
2023-05-23T07:13:44.192Z,1009.36
2023-05-23T07:14:48.569Z,1009.36
2023-05-23T07:15:52.894Z,1009.35
2023-05-23T07:16:57.296Z,1009.34
2023-05-23T07:18:01.764Z,1009.33
2023-05-23T07:19:06.116Z,1009.33
2023-05-23T07:20:10.424Z,1009.31
2023-05-23T07:21:14.799Z,1009.30
2023-05-23T07:22:19.472Z,1009.30
2023-05-23T07:23:23.682Z,1009.30
2023-05-23T07:24:28.014Z,1009.28
2023-05-23T07:25:32.393Z,1009.26
2023-05-23T07:26:50.792Z,1009.28
2023-05-23T07:27:53.933Z,1009.28
2023-05-23T07:28:58.227Z,1009.26
2023-05-23T07:30:02.559Z,1009.25
2023-05-23T07:31:06.941Z,1009.26
2023-05-23T07:32:11.284Z,1009.25
2023-05-23T07:33:15.700Z,1009.25
2023-05-23T07:34:20.077Z,1009.24
2023-05-23T07:35:24.508Z,1009.23
2023-05-23T07:36:28.851Z,1009.24
2023-05-23T07:37:33.280Z,1009.23
2023-05-23T07:38:37.636Z,1009.24
2023-05-23T07:39:41.972Z,1009.24
2023-05-23T07:40:52.722Z,1009.25
2023-05-23T07:41:50.740Z,1009.26
2023-05-23T07:42:55.187Z,1009.26
2023-05-23T07:43:59.565Z,1009.27
2023-05-23T07:45:18.053Z,1009.25
2023-05-23T07:46:21.454Z,1009.26
2023-05-23T07:47:25.836Z,1009.25
2023-05-23T07:48:30.164Z,1009.25
2023-05-23T07:49:34.529Z,1009.23
2023-05-23T07:50:39.079Z,1009.22
2023-05-23T07:51:43.360Z,1009.20
2023-05-23T07:52:47.734Z,1009.19
2023-05-23T07:53:52.139Z,1009.22
2023-05-23T07:54:56.506Z,1009.19
2023-05-23T07:56:00.990Z,1009.20
2023-05-23T07:57:05.315Z,1009.22
2023-05-23T07:58:09.716Z,1009.24
2023-05-23T07:59:14.082Z,1009.26
2023-05-23T08:00:18.470Z,1009.25
2023-05-23T08:01:22.869Z,1009.25
2023-05-23T08:02:27.309Z,1009.25
2023-05-23T08:03:31.760Z,1009.25
2023-05-23T08:04:36.092Z,1009.25
2023-05-23T08:05:40.512Z,1009.25
2023-05-23T08:06:56.444Z,1009.26
2023-05-23T08:07:49.243Z,1009.25
2023-05-23T08:08:53.682Z,1009.25
2023-05-23T08:09:58.061Z,1009.26
2023-05-23T08:11:02.461Z,1009.27
2023-05-23T08:12:06.955Z,1009.28
2023-05-23T08:13:25.438Z,1009.30
2023-05-23T08:14:38.792Z,1009.33
2023-05-23T08:15:33.122Z,1009.36
2023-05-23T08:16:37.526Z,1009.37
2023-05-23T08:17:42.004Z,1009.39
2023-05-23T08:19:00.372Z,1009.42
2023-05-23T08:20:03.666Z,1009.42
2023-05-23T08:21:11.036Z,1009.45
2023-05-23T08:22:14.522Z,1009.46
2023-05-23T08:23:18.929Z,1009.48
2023-05-23T08:24:23.357Z,1009.50
2023-05-23T08:25:41.727Z,1009.50
2023-05-23T08:26:45.068Z,1009.50
2023-05-23T08:27:49.438Z,1009.51
2023-05-23T08:28:53.871Z,1009.49
2023-05-23T08:29:58.181Z,1009.53
2023-05-23T08:31:02.554Z,1009.49
2023-05-23T08:32:13.159Z,1009.50
2023-05-23T08:33:15.944Z,1009.51
2023-05-23T08:34:20.354Z,1009.51
2023-05-23T08:35:24.801Z,1009.54
2023-05-23T08:36:29.213Z,1009.52
2023-05-23T08:37:33.643Z,1009.50
2023-05-23T08:38:44.059Z,1009.49
2023-05-23T08:39:47.211Z,1009.50
2023-05-23T08:40:51.501Z,1009.49
2023-05-23T08:41:55.953Z,1009.48
2023-05-23T08:43:00.477Z,1009.48
2023-05-23T08:44:04.720Z,1009.49
2023-05-23T08:45:09.183Z,1009.47
2023-05-23T08:46:13.685Z,1009.46
2023-05-23T08:47:18.020Z,1009.48
2023-05-23T08:48:22.449Z,1009.47
2023-05-23T08:49:26.882Z,1009.47
2023-05-23T08:50:31.359Z,1009.45
2023-05-23T08:51:35.706Z,1009.49
2023-05-23T08:52:40.145Z,1009.47
2023-05-23T08:53:44.498Z,1009.50
2023-05-23T08:54:48.955Z,1009.51
2023-05-23T08:55:53.283Z,1009.50
2023-05-23T08:57:00.746Z,1009.53
2023-05-23T08:58:04.253Z,1009.53
2023-05-23T08:59:08.659Z,1009.54
2023-05-23T09:00:12.996Z,1009.54
2023-05-23T09:01:31.594Z,1009.55
2023-05-23T09:02:35.197Z,1009.55
2023-05-23T09:03:39.483Z,1009.56
2023-05-23T09:04:43.910Z,1009.52
2023-05-23T09:05:48.298Z,1009.54
2023-05-23T09:06:52.698Z,1009.55
2023-05-23T09:07:57.162Z,1009.55
2023-05-23T09:09:01.586Z,1009.54
2023-05-23T09:10:05.932Z,1009.56
2023-05-23T09:11:10.440Z,1009.56
2023-05-23T09:12:14.761Z,1009.58
2023-05-23T09:13:19.234Z,1009.62
2023-05-23T09:14:23.663Z,1009.59
2023-05-23T09:15:27.991Z,1009.60
2023-05-23T09:16:32.496Z,1009.61
2023-05-23T09:17:36.798Z,1009.59
2023-05-23T09:18:41.194Z,1009.59
2023-05-23T09:19:45.564Z,1009.56
2023-05-23T09:20:50.013Z,1009.60
2023-05-23T09:21:54.511Z,1009.63
2023-05-23T09:23:00.040Z,1009.65
2023-05-23T09:24:03.266Z,1009.66
2023-05-23T09:25:07.652Z,1009.65
2023-05-23T09:26:26.186Z,1009.65
2023-05-23T09:27:35.490Z,1009.68
2023-05-23T09:28:38.560Z,1009.66
2023-05-23T09:29:42.963Z,1009.66
2023-05-23T09:30:47.307Z,1009.66
2023-05-23T09:31:51.902Z,1009.68
2023-05-23T09:32:56.233Z,1009.66
2023-05-23T09:34:00.580Z,1009.64
2023-05-23T09:35:04.945Z,1009.66
2023-05-23T09:36:09.435Z,1009.65
2023-05-23T09:37:13.980Z,1009.62
2023-05-23T09:38:18.287Z,1009.62
2023-05-23T09:39:22.767Z,1009.61
2023-05-23T09:40:27.212Z,1009.60
2023-05-23T09:41:31.596Z,1009.63
2023-05-23T09:42:36.051Z,1009.58
2023-05-23T09:43:40.518Z,1009.54
2023-05-23T09:44:44.845Z,1009.52
2023-05-23T09:45:49.288Z,1009.50
2023-05-23T09:46:53.729Z,1009.51
2023-05-23T09:47:58.097Z,1009.52
2023-05-23T09:49:08.440Z,1009.54
2023-05-23T09:50:11.525Z,1009.53
2023-05-23T09:51:15.888Z,1009.52
2023-05-23T09:52:20.378Z,1009.53
2023-05-23T09:53:24.708Z,1009.51
2023-05-23T09:54:29.119Z,1009.51
2023-05-23T09:55:33.583Z,1009.53
2023-05-23T09:56:38.012Z,1009.49
2023-05-23T09:57:42.383Z,1009.50
2023-05-23T09:58:46.864Z,1009.49
2023-05-23T09:59:51.272Z,1009.49
2023-05-23T10:00:55.667Z,1009.48
2023-05-23T10:02:00.150Z,1009.49
2023-05-23T10:03:10.590Z,1009.50
2023-05-23T10:04:13.734Z,1009.53
2023-05-23T10:05:18.011Z,1009.53
2023-05-23T10:06:22.507Z,1009.55
2023-05-23T10:07:26.960Z,1009.51
2023-05-23T10:08:31.349Z,1009.50
2023-05-23T10:09:41.772Z,1009.51
2023-05-23T10:10:44.892Z,1009.55
2023-05-23T10:11:49.378Z,1009.54
2023-05-23T10:12:53.725Z,1009.56
2023-05-23T10:13:58.237Z,1009.58
2023-05-23T10:15:02.616Z,1009.60
2023-05-23T10:16:13.028Z,1009.60
2023-05-23T10:17:16.120Z,1009.64
2023-05-23T10:18:20.596Z,1009.65
2023-05-23T10:19:25.051Z,1009.67
2023-05-23T10:20:29.395Z,1009.70
2023-05-23T10:21:33.767Z,1009.71
2023-05-23T10:22:38.217Z,1009.71
2023-05-23T10:23:45.750Z,1009.70
2023-05-23T10:24:49.254Z,1009.71
2023-05-23T10:25:53.660Z,1009.75
2023-05-23T10:26:58.156Z,1009.76
2023-05-23T10:28:16.602Z,1009.75
2023-05-23T10:29:19.970Z,1009.74
2023-05-23T10:30:27.335Z,1009.77
2023-05-23T10:31:30.907Z,1009.76
2023-05-23T10:32:35.332Z,1009.76
2023-05-23T10:33:39.754Z,1009.77
2023-05-23T10:34:44.065Z,1009.80
2023-05-23T10:36:02.733Z,1009.81
2023-05-23T10:37:05.916Z,1009.81
2023-05-23T10:38:10.366Z,1009.83
2023-05-23T10:39:17.760Z,1009.86
2023-05-23T10:40:21.297Z,1009.87
2023-05-23T10:41:31.635Z,1009.90
2023-05-23T10:42:34.751Z,1009.89
2023-05-23T10:43:39.178Z,1009.93
2023-05-23T10:44:43.607Z,1009.93
2023-05-23T10:45:48.065Z,1009.93
2023-05-23T10:46:52.422Z,1009.95
2023-05-23T10:47:56.825Z,1009.92
2023-05-23T10:49:01.200Z,1009.95
2023-05-23T10:50:05.535Z,1009.97
2023-05-23T10:51:23.916Z,1009.99
2023-05-23T10:52:26.910Z,1009.96
2023-05-23T10:53:37.310Z,1009.96
2023-05-23T10:54:40.411Z,1009.96
2023-05-23T10:55:44.709Z,1009.96
2023-05-23T10:56:49.121Z,1009.94
2023-05-23T10:58:07.663Z,1010.00
2023-05-23T10:59:10.938Z,1010.06
2023-05-23T11:00:15.281Z,1010.04
2023-05-23T11:01:19.811Z,1010.05
2023-05-23T11:02:38.317Z,1010.05
2023-05-23T11:03:41.699Z,1010.11
2023-05-23T11:04:45.888Z,1010.13
2023-05-23T11:05:50.279Z,1010.15
2023-05-23T11:06:54.624Z,1010.15
2023-05-23T11:08:13.073Z,1010.18
2023-05-23T11:09:22.464Z,1010.22
2023-05-23T11:10:25.444Z,1010.27
2023-05-23T11:11:35.765Z,1010.27
2023-05-23T11:12:38.882Z,1010.34
2023-05-23T11:13:43.191Z,1010.33
2023-05-23T11:14:47.549Z,1010.32
2023-05-23T11:15:51.948Z,1010.34
2023-05-23T11:16:56.326Z,1010.33
2023-05-23T11:18:00.656Z,1010.35
2023-05-23T11:19:05.144Z,1010.33
2023-05-23T11:20:09.515Z,1010.39
2023-05-23T11:21:13.936Z,1010.40
2023-05-23T11:22:18.303Z,1010.37
2023-05-23T11:23:22.760Z,1010.39
2023-05-23T11:24:27.106Z,1010.40
2023-05-23T11:25:31.574Z,1010.41
2023-05-23T11:26:38.951Z,1010.45
2023-05-23T11:27:42.500Z,1010.47
2023-05-23T11:28:46.829Z,1010.46
2023-05-23T11:29:51.205Z,1010.50
2023-05-23T11:30:55.735Z,1010.48
2023-05-23T11:32:00.218Z,1010.51
2023-05-23T11:33:04.543Z,1010.53
2023-05-23T11:34:08.855Z,1010.55
2023-05-23T11:35:13.207Z,1010.60
2023-05-23T11:36:17.582Z,1010.59
2023-05-23T11:37:21.923Z,1010.60
2023-05-23T11:38:26.334Z,1010.62
2023-05-23T11:39:30.686Z,1010.63
2023-05-23T11:40:35.117Z,1010.62
2023-05-23T11:41:39.504Z,1010.63
2023-05-23T11:42:43.930Z,1010.63
2023-05-23T11:43:48.339Z,1010.66
2023-05-23T11:44:52.640Z,1010.66
2023-05-23T11:45:57.003Z,1010.68
2023-05-23T11:47:01.337Z,1010.72
2023-05-23T11:48:05.764Z,1010.72
2023-05-23T11:49:10.109Z,1010.73
2023-05-23T11:50:14.450Z,1010.74
2023-05-23T11:51:18.898Z,1010.78
2023-05-23T11:52:23.223Z,1010.83
2023-05-23T11:53:27.636Z,1010.83
2023-05-23T11:54:46.029Z,1010.88
2023-05-23T11:55:49.421Z,1010.92
2023-05-23T11:56:53.860Z,1010.92
2023-05-23T11:57:58.193Z,1010.92
2023-05-23T11:59:02.520Z,1010.94
2023-05-23T12:00:06.877Z,1010.96
2023-05-23T12:01:11.319Z,1010.97
2023-05-23T12:02:15.678Z,1011.00
2023-05-23T12:03:34.333Z,1011.02
2023-05-23T12:04:37.379Z,1011.10
2023-05-23T12:05:41.462Z,1011.11
2023-05-23T12:06:45.886Z,1011.13
2023-05-23T12:07:50.187Z,1011.15
2023-05-23T12:08:54.612Z,1011.17
2023-05-23T12:09:58.946Z,1011.17
2023-05-23T12:11:18.199Z,1011.19
2023-05-23T12:12:20.581Z,1011.24
2023-05-23T12:13:24.795Z,1011.27
2023-05-23T12:14:29.205Z,1011.30
2023-05-23T12:15:33.530Z,1011.29
2023-05-23T12:16:37.967Z,1011.32
2023-05-23T12:17:42.273Z,1011.32
2023-05-23T12:18:46.744Z,1011.36
2023-05-23T12:19:51.060Z,1011.38
2023-05-23T12:20:55.426Z,1011.40
2023-05-23T12:21:59.874Z,1011.42
2023-05-23T12:23:04.316Z,1011.42
2023-05-23T12:24:08.572Z,1011.44
2023-05-23T12:25:19.007Z,1011.46
2023-05-23T12:26:21.949Z,1011.47
2023-05-23T12:27:26.267Z,1011.48
2023-05-23T12:28:30.662Z,1011.47
2023-05-23T12:29:35.432Z,1011.47
2023-05-23T12:30:39.472Z,1011.50
2023-05-23T12:31:43.714Z,1011.52
2023-05-23T12:32:48.065Z,1011.53
2023-05-23T12:33:52.338Z,1011.54
2023-05-23T12:34:56.874Z,1011.59
2023-05-23T12:36:07.131Z,1011.58
2023-05-23T12:37:18.960Z,1011.58
2023-05-23T12:38:14.476Z,1011.63
2023-05-23T12:39:18.863Z,1011.61
2023-05-23T12:40:23.278Z,1011.64
2023-05-23T12:41:27.611Z,1011.66
2023-05-23T12:42:31.952Z,1011.67
2023-05-23T12:43:36.420Z,1011.66
2023-05-23T12:44:40.813Z,1011.66
2023-05-23T12:45:45.153Z,1011.66
2023-05-23T12:46:49.520Z,1011.67
2023-05-23T12:47:54.514Z,1011.66
2023-05-23T12:48:58.212Z,1011.67
2023-05-23T12:50:02.655Z,1011.70
2023-05-23T12:51:06.977Z,1011.70
2023-05-23T12:52:11.398Z,1011.73
2023-05-23T12:53:15.775Z,1011.74
2023-05-23T12:54:20.114Z,1011.76
2023-05-23T12:55:24.461Z,1011.78
2023-05-23T12:56:28.810Z,1011.79
2023-05-23T12:57:33.160Z,1011.82
2023-05-23T12:58:37.585Z,1011.87
2023-05-23T12:59:41.955Z,1011.84
2023-05-23T13:00:46.395Z,1011.85
2023-05-23T13:01:50.694Z,1011.90
2023-05-23T13:03:07.179Z,1011.93
2023-05-23T13:04:09.739Z,1011.91
2023-05-23T13:05:14.084Z,1011.95